Řízení letového provozu České republiky
Letiste: LKPD Aktualizace: 24.08.2016 04:08:16  UTC
 METAR LKPD 24.08. 04:00 ...
METAR LKPD 240400Z 00000KT 4500 MIFG BR NSC 13/12 Q1026 BECMG CAVOK=
 TAF LKPD 23.08. 17:00 ...
TAF LKPD 231700Z 2318/2418 VRB02KT CAVOK      PROB30 TEMPO 2403/2405 4000 MIFG BR      BECMG 2410/2412 12008KT=